Time;durP1;ratioP1;P1;durP2;ratioP2;P2;SDS_P1;SDS_P2;PMS_P1;PMS_P2;Temp;Humidity;BMP_temperature;BMP_pressure;BME280_temperature;BME280_humidity;BME280_pressure;Samples;Min_cycle;Max_cycle;Signal;HPM_P1;HPM_P2
2022/06/24 00:01:34;;;;;;;5.85;2.92;;;20.50;80.70;;;;;;5020292;28;20199;-72
2022/06/24 00:04:01;;;;;;;8.93;4.70;;;20.60;81.00;;;;;;5027107;28;20578;-71
2022/06/24 00:06:41;;;;;;;6.95;3.63;;;20.60;81.20;;;;;;5027356;28;20222;-72
2022/06/24 00:09:12;;;;;;;6.35;3.20;;;20.60;81.00;;;;;;5033961;28;20206;-73
2022/06/24 00:11:39;;;;;;;4.25;2.78;;;20.50;80.70;;;;;;5029961;28;20222;-72
2022/06/24 00:14:08;;;;;;;7.43;3.88;;;20.50;81.50;;;;;;5020683;28;20230;-72
2022/06/24 00:16:53;;;;;;;4.43;3.30;;;20.50;80.80;;;;;;5028452;28;20234;-71
2022/06/24 00:19:20;;;;;;;4.13;3.00;;;20.50;81.00;;;;;;5025567;28;20586;-72
2022/06/24 00:21:58;;;;;;;3.88;2.70;;;20.40;81.00;;;;;;5031859;28;20257;-71
2022/06/24 00:24:26;;;;;;;5.57;3.30;;;20.40;81.00;;;;;;5018960;28;20214;-72
2022/06/24 00:26:53;;;;;;;2.60;2.25;;;20.40;81.10;;;;;;5024095;28;20207;-72
2022/06/24 00:29:20;;;;;;;4.90;3.25;;;20.40;81.20;;;;;;5028351;28;20241;-72
2022/06/24 00:32:01;;;;;;;4.55;3.28;;;20.30;81.10;;;;;;5028918;28;20238;-73
2022/06/24 00:34:28;;;;;;;4.68;3.40;;;20.30;81.20;;;;;;5026342;28;20205;-72
2022/06/24 00:36:55;;;;;;;5.25;3.58;;;20.30;81.40;;;;;;5016788;28;20218;-71
2022/06/24 00:39:30;;;;;;;8.15;4.45;;;20.30;81.40;;;;;;5017542;28;20206;-72
2022/06/24 00:42:00;;;;;;;3.30;2.60;;;20.30;81.50;;;;;;5032105;28;20207;-72
2022/06/24 00:44:29;;;;;;;5.28;2.80;;;20.20;81.60;;;;;;5019430;28;20618;-71
2022/06/24 00:46:59;;;;;;;4.63;3.97;;;20.20;81.80;;;;;;5025362;28;20656;-72
2022/06/24 00:49:28;;;;;;;3.63;2.45;;;20.20;82.10;;;;;;5017061;28;20214;-71
2022/06/24 00:51:55;;;;;;;4.25;2.47;;;20.20;82.10;;;;;;5016897;28;20234;-72
2022/06/24 00:54:24;;;;;;;4.65;3.05;;;20.20;82.40;;;;;;5016654;28;20644;-71
2022/06/24 00:56:55;;;;;;;4.40;2.95;;;20.10;82.50;;;;;;5024697;28;20652;-73
2022/06/24 00:59:24;;;;;;;9.32;3.40;;;20.10;82.80;;;;;;5032671;28;20213;-71
2022/06/24 01:01:51;;;;;;;5.90;3.70;;;20.10;82.90;;;;;;5019282;28;20206;-72
2022/06/24 01:04:18;;;;;;;2.75;2.55;;;20.10;83.20;;;;;;5020082;28;20575;-72
2022/06/24 01:06:45;;;;;;;8.02;4.82;;;20.10;83.40;;;;;;5028627;28;20204;-71
2022/06/24 01:09:13;;;;;;;3.75;2.90;;;20.00;83.50;;;;;;5028688;28;20213;-71
2022/06/24 01:11:41;;;;;;;5.72;3.47;;;20.00;83.60;;;;;;5033186;28;20594;-72
2022/06/24 01:14:09;;;;;;;4.47;3.83;;;20.00;83.70;;;;;;5017493;28;20218;-72
2022/06/24 01:16:38;;;;;;;4.38;2.47;;;19.90;83.80;;;;;;5017721;28;20231;-72
2022/06/24 01:19:07;;;;;;;5.93;4.30;;;19.90;84.00;;;;;;5022859;28;20211;-73
2022/06/24 01:21:36;;;;;;;6.45;4.82;;;20.00;84.30;;;;;;5031747;28;20202;-73
2022/06/24 01:24:05;;;;;;;6.32;4.43;;;19.90;84.50;;;;;;5032115;28;20198;-72
2022/06/24 01:26:32;;;;;;;5.28;3.63;;;19.90;84.70;;;;;;5019040;28;20203;-72
2022/06/24 01:28:59;;;;;;;6.28;4.25;;;19.90;84.80;;;;;;5026176;28;20258;-71
2022/06/24 01:31:26;;;;;;;8.40;3.70;;;19.80;85.00;;;;;;5031052;28;20225;-71
2022/06/24 01:33:52;;;;;;;8.23;5.13;;;19.80;85.10;;;;;;5015263;28;20203;-73
2022/06/24 01:36:19;;;;;;;5.38;3.80;;;19.80;85.20;;;;;;5018798;28;20723;-72
2022/06/24 01:38:48;;;;;;;4.78;2.83;;;19.80;85.20;;;;;;5022566;28;20579;-71
2022/06/24 01:41:14;;;;;;;6.55;3.65;;;19.80;85.60;;;;;;5020903;28;20265;-71
2022/06/24 01:43:41;;;;;;;7.78;4.43;;;19.80;85.70;;;;;;5028376;28;20544;-72
2022/06/24 01:46:08;;;;;;;6.03;3.70;;;19.70;85.70;;;;;;5019042;28;20222;-72
2022/06/24 01:48:35;;;;;;;5.07;3.47;;;19.70;85.70;;;;;;5015986;28;20215;-71
2022/06/24 01:51:02;;;;;;;4.25;3.83;;;19.70;85.70;;;;;;5017324;28;20227;-71
2022/06/24 01:53:28;;;;;;;9.38;6.53;;;19.70;85.70;;;;;;5017907;28;20582;-71
2022/06/24 01:55:57;;;;;;;7.85;5.40;;;19.60;85.70;;;;;;5013863;28;20214;-71
2022/06/24 01:58:23;;;;;;;5.15;3.30;;;19.60;85.70;;;;;;5023488;28;20206;-71
2022/06/24 02:00:51;;;;;;;8.35;5.60;;;19.70;86.00;;;;;;5015016;28;20211;-71
2022/06/24 02:03:17;;;;;;;5.60;3.88;;;19.60;86.00;;;;;;5016921;28;20243;-71
2022/06/24 02:05:47;;;;;;;3.25;2.95;;;19.50;86.20;;;;;;5016774;28;20306;-71
2022/06/24 02:08:14;;;;;;;3.60;3.10;;;19.60;86.50;;;;;;5017526;28;20214;-71
2022/06/24 02:13:27;;;;;;;5.95;3.00;;;19.50;87.00;;;;;;5017795;28;20204;-71
2022/06/24 02:15:54;;;;;;;3.92;3.53;;;19.40;87.20;;;;;;5017071;28;20230;-71
2022/06/24 02:18:21;;;;;;;6.82;4.88;;;19.40;87.20;;;;;;5024253;28;20199;-71
2022/06/24 02:20:49;;;;;;;4.97;3.80;;;19.40;87.50;;;;;;5023729;28;20568;-71
2022/06/24 02:23:16;;;;;;;3.95;3.25;;;19.40;87.80;;;;;;5015334;28;20573;-72
2022/06/24 02:25:43;;;;;;;3.97;3.42;;;19.40;87.90;;;;;;5018027;28;20220;-71
2022/06/24 02:28:10;;;;;;;3.85;2.97;;;19.40;88.10;;;;;;5019397;28;20302;-71
2022/06/24 02:30:38;;;;;;;4.47;3.53;;;19.40;88.30;;;;;;5017581;28;20547;-70
2022/06/24 02:33:05;;;;;;;3.50;3.05;;;19.40;88.50;;;;;;5032050;28;20629;-70
2022/06/24 02:35:32;;;;;;;3.63;2.88;;;19.30;88.70;;;;;;5019352;28;20203;-70
2022/06/24 02:37:59;;;;;;;6.13;3.10;;;19.30;88.80;;;;;;5014298;28;20217;-72
2022/06/24 02:43:13;;;;;;;4.70;3.17;;;19.40;89.30;;;;;;5013437;28;20679;-71
2022/06/24 02:45:41;;;;;;;4.53;3.60;;;19.40;89.50;;;;;;5022623;28;20199;-71
2022/06/24 02:48:09;;;;;;;5.18;3.60;;;19.40;89.40;;;;;;5014850;28;20214;-71
2022/06/24 02:50:39;;;;;;;4.63;3.35;;;19.40;89.40;;;;;;5014812;28;20664;-72
2022/06/24 02:53:06;;;;;;;5.57;2.80;;;19.40;89.60;;;;;;5015257;28;20210;-72
2022/06/24 02:55:33;;;;;;;8.02;3.20;;;19.40;89.70;;;;;;5022865;28;20583;-72
2022/06/24 02:58:00;;;;;;;5.53;3.88;;;19.50;89.90;;;;;;5019680;28;20211;-72
2022/06/24 03:00:27;;;;;;;6.30;3.35;;;19.50;89.90;;;;;;5026138;28;20222;-72
2022/06/24 03:02:55;;;;;;;4.43;3.47;;;19.50;89.90;;;;;;5014373;28;20215;-72
2022/06/24 03:05:22;;;;;;;5.22;3.58;;;19.50;89.90;;;;;;5021987;28;20214;-72
2022/06/24 03:07:49;;;;;;;4.00;3.20;;;19.50;89.70;;;;;;5020925;28;20214;-71
2022/06/24 03:10:17;;;;;;;6.10;4.22;;;19.60;89.80;;;;;;5027431;28;20211;-71
2022/06/24 03:12:44;;;;;;;4.80;3.80;;;19.60;89.70;;;;;;5024732;28;20710;-71
2022/06/24 03:15:11;;;;;;;5.70;3.58;;;19.70;89.80;;;;;;5024605;28;20203;-71
2022/06/24 03:17:38;;;;;;;5.32;3.00;;;19.70;89.60;;;;;;5021618;28;20603;-72
2022/06/24 03:20:08;;;;;;;5.55;3.97;;;19.70;89.20;;;;;;5026514;28;20237;-72
2022/06/24 03:22:35;;;;;;;10.02;6.57;;;19.80;89.10;;;;;;5033691;28;20202;-71
2022/06/24 03:25:03;;;;;;;12.13;6.60;;;19.80;89.70;;;;;;5020158;28;20214;-71
2022/06/24 03:27:30;;;;;;;11.95;8.02;;;19.80;88.70;;;;;;5022984;28;20215;-71
2022/06/24 03:29:56;;;;;;;7.90;5.30;;;19.90;88.60;;;;;;5023227;28;20246;-71
2022/06/24 03:32:23;;;;;;;8.20;3.78;;;20.00;88.40;;;;;;5028772;28;20231;-72
2022/06/24 03:34:50;;;;;;;4.03;3.50;;;20.00;88.00;;;;;;5018792;28;20211;-72
2022/06/24 03:37:18;;;;;;;5.45;3.35;;;20.10;88.00;;;;;;5021579;28;20581;-71
2022/06/24 03:39:45;;;;;;;5.07;3.63;;;20.10;87.90;;;;;;5023271;28;20221;-71
2022/06/24 03:42:12;;;;;;;5.03;3.97;;;20.20;87.90;;;;;;5027905;28;20214;-70
2022/06/24 03:44:39;;;;;;;6.68;4.60;;;20.20;87.90;;;;;;5031293;28;20249;-70
2022/06/24 03:47:06;;;;;;;8.73;5.72;;;20.20;87.90;;;;;;5025034;28;20214;-70
2022/06/24 03:49:32;;;;;;;7.93;3.97;;;20.30;87.70;;;;;;5021922;28;20211;-70
2022/06/24 03:52:00;;;;;;;5.32;3.35;;;20.30;87.70;;;;;;5021122;28;20242;-71
2022/06/24 03:54:28;;;;;;;8.35;3.63;;;20.30;87.80;;;;;;5026575;28;20215;-72
2022/06/24 03:56:55;;;;;;;4.45;3.60;;;20.30;87.80;;;;;;5017319;28;20203;-71
2022/06/24 03:59:21;;;;;;;5.43;4.40;;;20.40;87.80;;;;;;5020238;28;20521;-71
2022/06/24 04:01:48;;;;;;;4.25;2.90;;;20.40;87.90;;;;;;5018727;28;20202;-72
2022/06/24 04:04:15;;;;;;;9.05;5.35;;;20.40;88.60;;;;;;5016796;28;20215;-71
2022/06/24 04:06:42;;;;;;;5.20;3.88;;;20.30;87.80;;;;;;5021692;28;20291;-70
2022/06/24 04:09:09;;;;;;;8.68;5.13;;;20.50;87.90;;;;;;5016765;28;20689;-72
2022/06/24 04:11:37;;;;;;;3.55;2.67;;;20.50;87.90;;;;;;5020258;28;20226;-70
2022/06/24 04:14:04;;;;;;;3.55;2.40;;;20.60;87.80;;;;;;5016498;28;20203;-71
2022/06/24 04:16:31;;;;;;;4.68;2.53;;;20.60;87.10;;;;;;5019010;28;20235;-71
2022/06/24 04:18:58;;;;;;;6.72;2.95;;;20.60;86.10;;;;;;5025379;28;20206;-71
2022/06/24 04:21:25;;;;;;;3.55;2.40;;;20.70;86.10;;;;;;5032205;28;20207;-72
2022/06/24 04:23:52;;;;;;;3.90;2.67;;;20.70;86.80;;;;;;5018917;28;21290;-71
2022/06/24 04:26:20;;;;;;;3.97;3.10;;;20.70;86.00;;;;;;5028632;28;20198;-70
2022/06/24 04:28:50;;;;;;;7.18;3.25;;;20.80;85.40;;;;;;5028985;28;20218;-70
2022/06/24 04:31:17;;;;;;;3.72;2.72;;;20.80;85.30;;;;;;5035659;28;20215;-71
2022/06/24 04:33:43;;;;;;;6.68;3.67;;;20.80;85.10;;;;;;5032944;28;20678;-70
2022/06/24 04:36:13;;;;;;;3.42;2.35;;;20.90;85.10;;;;;;5019258;28;20214;-70
2022/06/24 04:38:41;;;;;;;5.00;3.70;;;20.90;85.00;;;;;;5020114;28;20574;-71
2022/06/24 04:41:12;;;;;;;3.13;2.60;;;21.00;84.30;;;;;;5025619;28;20214;-70
2022/06/24 04:43:38;;;;;;;2.95;2.75;;;21.00;84.00;;;;;;5025795;28;20689;-71
2022/06/24 04:46:07;;;;;;;2.80;2.38;;;21.00;83.80;;;;;;5030076;28;20215;-70
2022/06/24 04:48:36;;;;;;;2.95;2.63;;;21.10;83.40;;;;;;5027367;28;20203;-71
2022/06/24 04:51:03;;;;;;;6.55;3.47;;;21.10;83.10;;;;;;5019776;28;20219;-71
2022/06/24 04:53:30;;;;;;;3.53;2.20;;;21.10;83.10;;;;;;5026962;28;20580;-72
2022/06/24 04:55:57;;;;;;;6.90;4.50;;;21.10;83.10;;;;;;5026868;28;20219;-71
2022/06/24 04:58:24;;;;;;;3.00;2.60;;;21.10;82.90;;;;;;5025087;28;20215;-71
2022/06/24 05:00:51;;;;;;;4.75;2.42;;;21.10;82.90;;;;;;5015122;28;20211;-70
2022/06/24 05:03:19;;;;;;;6.38;2.55;;;21.10;83.10;;;;;;5021748;28;20207;-70
2022/06/24 05:05:46;;;;;;;4.03;2.95;;;21.00;82.60;;;;;;5024405;28;20202;-69
2022/06/24 05:08:12;;;;;;;8.82;4.70;;;21.00;82.80;;;;;;5019058;28;20213;-70
2022/06/24 05:10:41;;;;;;;5.35;2.85;;;21.10;82.90;;;;;;5033518;28;20712;-69
2022/06/24 05:13:08;;;;;;;6.75;3.00;;;21.00;83.00;;;;;;5019661;28;20238;-70
2022/06/24 05:15:35;;;;;;;5.38;3.05;;;21.00;83.20;;;;;;5022910;28;20202;-70
2022/06/24 05:18:02;;;;;;;2.55;2.20;;;21.10;83.10;;;;;;5022415;28;20211;-71
2022/06/24 05:20:30;;;;;;;3.55;2.47;;;21.10;83.10;;;;;;5018124;28;20660;-69
2022/06/24 05:22:57;;;;;;;5.25;3.78;;;21.20;82.60;;;;;;5025247;28;20247;-71
2022/06/24 05:25:24;;;;;;;6.97;2.92;;;21.20;83.00;;;;;;5019912;28;20209;-71
2022/06/24 05:27:51;;;;;;;5.72;3.10;;;21.20;83.00;;;;;;5022568;28;20671;-70
2022/06/24 05:30:18;;;;;;;4.35;3.05;;;21.30;83.00;;;;;;5023712;28;20227;-70
2022/06/24 05:32:44;;;;;;;8.80;3.30;;;21.30;82.90;;;;;;5029738;28;20218;-70
2022/06/24 05:35:11;;;;;;;3.17;2.67;;;21.30;83.10;;;;;;5019970;28;20571;-70
2022/06/24 05:37:40;;;;;;;4.43;2.90;;;21.40;82.90;;;;;;5031055;28;20218;-70
2022/06/24 05:40:07;;;;;;;2.95;2.60;;;21.40;82.20;;;;;;5018256;28;20203;-69
2022/06/24 05:42:34;;;;;;;4.60;2.88;;;21.50;81.90;;;;;;5014800;28;20258;-70
2022/06/24 05:45:01;;;;;;;3.78;2.40;;;21.50;82.00;;;;;;5032337;28;20206;-70
2022/06/24 05:47:28;;;;;;;4.15;2.80;;;21.60;82.30;;;;;;5015925;28;20211;-70
2022/06/24 05:49:55;;;;;;;4.03;2.45;;;21.60;82.10;;;;;;5014411;28;20207;-71
2022/06/24 05:55:02;;;;;;;6.22;2.75;;;21.70;82.30;;;;;;5024265;28;20679;-70
2022/06/24 05:55:09;;;;;;;5.40;2.63;;;21.80;82.60;;;;;;5022252;28;20265;-70
2022/06/24 05:57:36;;;;;;;6.03;3.05;;;21.90;82.60;;;;;;5014136;28;20248;-71
2022/06/24 06:00:03;;;;;;;2.80;2.50;;;21.90;82.30;;;;;;5017859;28;20233;-70
2022/06/24 06:02:30;;;;;;;5.40;3.10;;;22.00;82.40;;;;;;5019504;28;20695;-72
2022/06/24 06:04:57;;;;;;;5.28;2.70;;;22.10;82.50;;;;;;5019438;28;20233;-71
2022/06/24 06:07:25;;;;;;;6.65;3.85;;;22.10;82.40;;;;;;5026849;28;20211;-71
2022/06/24 06:09:51;;;;;;;11.93;3.50;;;22.20;82.40;;;;;;5029283;28;20211;-71
2022/06/24 06:12:20;;;;;;;6.25;2.85;;;22.30;82.20;;;;;;5015265;28;20263;-71
2022/06/24 06:14:46;;;;;;;4.88;3.17;;;22.30;81.70;;;;;;5022808;28;20251;-71
2022/06/24 06:17:13;;;;;;;5.47;3.15;;;22.40;81.70;;;;;;5020712;28;20631;-70
2022/06/24 06:19:40;;;;;;;4.68;2.30;;;22.40;81.40;;;;;;5025223;28;20217;-71
2022/06/24 06:22:07;;;;;;;6.57;2.72;;;22.40;81.20;;;;;;5020250;28;20199;-71
2022/06/24 06:24:34;;;;;;;3.70;2.50;;;22.50;81.00;;;;;;5014269;28;20297;-71
2022/06/24 06:27:00;;;;;;;4.20;2.80;;;22.50;80.20;;;;;;5025436;28;20297;-70
2022/06/24 06:29:29;;;;;;;2.83;2.30;;;22.60;80.40;;;;;;5017379;28;20247;-71
2022/06/24 06:31:56;;;;;;;3.72;2.72;;;22.70;80.60;;;;;;5024495;28;20605;-71
2022/06/24 06:34:23;;;;;;;6.00;3.85;;;22.70;80.40;;;;;;5026421;28;20706;-71
2022/06/24 06:36:49;;;;;;;3.63;3.10;;;22.80;80.50;;;;;;5013793;28;20207;-70
2022/06/24 06:39:16;;;;;;;3.28;2.10;;;22.80;80.30;;;;;;5023199;28;20959;-71
2022/06/24 06:41:46;;;;;;;6.85;3.67;;;22.90;79.80;;;;;;5016238;28;20207;-70
2022/06/24 06:44:14;;;;;;;7.07;4.63;;;22.90;79.50;;;;;;5017795;28;20249;-72
2022/06/24 06:46:43;;;;;;;5.47;4.28;;;22.90;79.30;;;;;;5019702;28;20203;-74
2022/06/24 06:49:09;;;;;;;7.68;2.95;;;22.90;78.80;;;;;;5021483;28;20265;-73
2022/06/24 06:51:37;;;;;;;6.40;3.65;;;22.90;78.10;;;;;;5014686;28;20572;-74
2022/06/24 06:54:04;;;;;;;5.80;3.85;;;22.90;78.60;;;;;;5016188;28;20206;-74
2022/06/24 06:56:31;;;;;;;4.60;2.78;;;23.00;78.10;;;;;;5024386;28;20298;-73
2022/06/24 06:58:58;;;;;;;6.70;3.30;;;23.10;78.20;;;;;;5018993;28;20211;-74
2022/06/24 07:01:25;;;;;;;4.50;2.83;;;23.10;77.40;;;;;;5022133;28;20215;-75
2022/06/24 07:03:53;;;;;;;3.78;2.70;;;23.10;77.00;;;;;;5018650;28;20687;-76
2022/06/24 07:06:20;;;;;;;3.20;2.50;;;23.20;77.60;;;;;;5023972;28;20244;-74
2022/06/24 07:08:47;;;;;;;3.80;2.20;;;23.30;77.30;;;;;;5021274;28;20297;-73
2022/06/24 07:11:14;;;;;;;6.30;2.78;;;23.30;76.80;;;;;;5021517;28;20289;-72
2022/06/24 07:13:41;;;;;;;6.15;2.38;;;23.40;76.20;;;;;;5017785;28;20234;-73
2022/06/24 07:16:10;;;;;;;4.25;2.00;;;23.50;76.00;;;;;;5028952;28;20232;-74
2022/06/24 07:18:37;;;;;;;4.95;1.85;;;23.60;74.90;;;;;;5024085;28;20284;-74
2022/06/24 07:21:06;;;;;;;2.40;2.17;;;23.70;75.10;;;;;;5020242;28;20219;-73
2022/06/24 07:23:32;;;;;;;3.83;2.22;;;23.70;75.30;;;;;;5024570;28;20542;-72
2022/06/24 07:25:59;;;;;;;3.50;2.00;;;23.80;75.40;;;;;;5024511;28;20683;-72
2022/06/24 07:28:27;;;;;;;2.58;1.70;;;23.90;74.80;;;;;;5014785;28;20230;-72
2022/06/24 07:30:54;;;;;;;5.45;2.35;;;24.10;74.10;;;;;;5016975;28;20349;-71
2022/06/24 07:33:22;;;;;;;2.70;1.52;;;24.10;74.00;;;;;;5019519;28;20245;-71
2022/06/24 07:35:49;;;;;;;2.00;1.90;;;24.30;73.50;;;;;;5022506;28;20246;-70
2022/06/24 07:38:17;;;;;;;2.65;1.77;;;24.30;73.10;;;;;;5014980;28;20236;-71
2022/06/24 07:40:44;;;;;;;5.00;2.00;;;24.40;72.90;;;;;;5028317;28;20819;-71
2022/06/24 07:43:11;;;;;;;3.13;1.80;;;24.50;73.00;;;;;;5024959;28;20656;-73
2022/06/24 07:45:39;;;;;;;2.75;2.28;;;24.60;73.10;;;;;;5028289;28;20214;-71
2022/06/24 07:48:06;;;;;;;3.45;1.92;;;24.80;73.10;;;;;;5018417;28;20211;-73
2022/06/24 07:50:33;;;;;;;2.75;1.52;;;24.90;72.90;;;;;;5025275;28;20446;-72
2022/06/24 07:53:00;;;;;;;1.58;1.48;;;24.90;72.10;;;;;;5023821;28;20228;-73
2022/06/24 07:58:13;;;;;;;3.40;1.67;;;25.00;71.40;;;;;;5027520;28;20289;-73
2022/06/24 08:00:39;;;;;;;2.03;1.80;;;25.00;71.30;;;;;;5025280;28;20309;-73
2022/06/24 08:03:06;;;;;;;3.22;1.75;;;25.00;71.40;;;;;;5027786;28;20206;-72
2022/06/24 08:05:33;;;;;;;3.35;1.80;;;25.10;71.60;;;;;;5017091;28;20207;-70
2022/06/24 08:08:00;;;;;;;3.67;1.80;;;25.10;70.60;;;;;;5032168;28;20230;-72
2022/06/24 08:10:29;;;;;;;1.92;1.33;;;25.10;70.20;;;;;;5024677;28;20217;-73
2022/06/24 08:12:56;;;;;;;4.97;1.75;;;25.20;70.20;;;;;;5031186;28;20258;-71
2022/06/24 08:15:23;;;;;;;3.67;1.92;;;25.20;69.60;;;;;;5024594;28;20924;-72
2022/06/24 08:17:50;;;;;;;3.15;1.67;;;25.30;69.70;;;;;;5018479;28;20238;-72
2022/06/24 08:20:17;;;;;;;3.58;1.38;;;25.40;69.50;;;;;;5017026;28;20203;-70
2022/06/24 08:22:44;;;;;;;1.83;1.25;;;25.50;68.90;;;;;;5014066;28;20568;-71
2022/06/24 08:25:12;;;;;;;2.55;1.42;;;25.60;68.00;;;;;;5014012;28;20345;-71
2022/06/24 08:27:40;;;;;;;1.95;1.33;;;25.60;67.20;;;;;;5018515;28;20656;-70
2022/06/24 08:30:08;;;;;;;1.70;1.25;;;25.60;66.40;;;;;;5011106;28;20227;-72
2022/06/24 08:32:35;;;;;;;5.60;1.63;;;25.60;66.20;;;;;;5015341;28;20238;-70
2022/06/24 08:35:02;;;;;;;2.08;1.50;;;25.70;66.10;;;;;;5018156;28;20211;-71
2022/06/24 08:37:29;;;;;;;2.28;1.30;;;25.70;66.20;;;;;;5021847;28;20202;-70
2022/06/24 08:39:57;;;;;;;2.00;1.40;;;25.70;66.70;;;;;;5019132;28;20269;-70
2022/06/24 08:42:28;;;;;;;1.38;1.27;;;25.80;66.50;;;;;;5019445;28;20258;-70
2022/06/24 08:44:59;;;;;;;1.58;1.45;;;25.90;65.90;;;;;;5014343;28;20242;-70
2022/06/24 08:47:26;;;;;;;1.85;1.27;;;26.10;65.60;;;;;;5017637;28;20205;-69
2022/06/24 08:49:53;;;;;;;2.85;1.60;;;26.20;65.40;;;;;;5017213;28;20762;-69
2022/06/24 08:52:20;;;;;;;2.25;1.60;;;26.40;65.20;;;;;;5019762;28;20636;-71
2022/06/24 08:54:50;;;;;;;1.45;1.35;;;26.40;65.00;;;;;;5017411;28;20704;-70
2022/06/24 08:57:17;;;;;;;1.50;1.35;;;26.50;64.80;;;;;;5017079;28;20291;-71
2022/06/24 08:59:45;;;;;;;2.95;1.45;;;26.60;64.30;;;;;;5015427;28;20209;-70
2022/06/24 09:02:15;;;;;;;1.50;1.40;;;26.70;64.00;;;;;;5022426;28;20644;-71
2022/06/24 09:04:44;;;;;;;3.08;2.40;;;26.70;64.30;;;;;;5017595;28;20583;-70
2022/06/24 09:07:18;;;;;;;2.63;2.05;;;26.80;63.80;;;;;;5018850;28;20207;-72
2022/06/24 09:09:58;;;;;;;3.65;1.60;;;27.00;63.60;;;;;;5016175;28;21101;-69
2022/06/24 09:12:24;;;;;;;3.45;1.40;;;27.00;63.20;;;;;;5019191;28;20206;-68
2022/06/24 09:14:51;;;;;;;2.00;1.60;;;27.00;63.20;;;;;;5019569;28;20218;-69
2022/06/24 09:17:28;;;;;;;1.52;1.35;;;27.10;63.30;;;;;;5023073;28;20727;-69
2022/06/24 09:20:07;;;;;;;5.07;1.40;;;27.20;63.80;;;;;;5023594;28;20203;-70
2022/06/24 09:22:34;;;;;;;4.10;1.35;;;27.30;63.30;;;;;;5019007;28;20203;-71
2022/06/24 09:25:03;;;;;;;3.03;1.98;;;27.40;63.00;;;;;;5014207;28;20203;-70
2022/06/24 09:27:30;;;;;;;4.00;1.60;;;27.60;62.90;;;;;;5017463;28;20718;-69
2022/06/24 09:29:58;;;;;;;3.10;1.35;;;27.80;62.40;;;;;;5013207;28;20620;-70
2022/06/24 09:32:26;;;;;;;4.45;1.33;;;28.00;60.80;;;;;;5015615;28;20211;-70
2022/06/24 09:35:01;;;;;;;3.15;1.40;;;28.00;60.30;;;;;;5018124;28;20234;-70
2022/06/24 09:37:38;;;;;;;3.08;1.33;;;28.00;60.50;;;;;;5014540;28;20210;-70
2022/06/24 09:40:20;;;;;;;3.63;1.50;;;28.10;60.00;;;;;;5019900;28;20226;-72
2022/06/24 09:42:59;;;;;;;2.17;1.20;;;28.10;59.50;;;;;;5016623;28;20237;-72
2022/06/24 09:45:28;;;;;;;1.40;1.30;;;28.10;59.30;;;;;;5021903;28;20303;-70
2022/06/24 09:47:58;;;;;;;2.00;1.70;;;28.10;59.10;;;;;;5013269;28;20207;-72
2022/06/24 09:50:25;;;;;;;1.55;1.40;;;28.10;59.20;;;;;;5016801;28;20238;-71
2022/06/24 09:52:53;;;;;;;2.33;1.52;;;28.20;59.90;;;;;;5015647;28;20231;-70
2022/06/24 09:55:20;;;;;;;1.35;1.25;;;28.40;59.50;;;;;;5022365;28;20196;-70
2022/06/24 09:57:48;;;;;;;3.17;1.30;;;28.50;58.90;;;;;;5012398;28;20622;-70
2022/06/24 10:03:04;;;;;;;2.28;1.40;;;28.70;58.40;;;;;;5017808;28;20632;-71
2022/06/24 10:05:34;;;;;;;3.85;1.50;;;28.80;58.20;;;;;;5018294;28;20202;-71
2022/06/24 10:08:01;;;;;;;2.22;2.03;;;28.90;58.10;;;;;;5021554;28;20298;-70
2022/06/24 10:10:31;;;;;;;4.88;1.42;;;28.90;57.90;;;;;;5021773;28;20214;-71
2022/06/24 10:13:04;;;;;;;1.58;1.48;;;28.90;58.00;;;;;;5025054;28;20230;-71
2022/06/24 10:15:32;;;;;;;3.40;1.50;;;29.00;57.90;;;;;;5022811;28;20661;-71
2022/06/24 10:18:00;;;;;;;4.28;1.60;;;29.00;57.80;;;;;;5021520;28;20302;-70
2022/06/24 10:20:29;;;;;;;2.90;1.25;;;29.00;57.80;;;;;;5016834;28;20679;-71
2022/06/24 10:22:57;;;;;;;2.25;1.30;;;29.00;57.90;;;;;;5016057;28;20218;-71
2022/06/24 10:25:53;;;;;;;3.10;1.38;;;29.00;57.90;;;;;;5017261;28;20216;-70
2022/06/24 10:28:20;;;;;;;2.17;1.30;;;29.00;57.80;;;;;;5018932;28;20207;-70
2022/06/24 10:31:01;;;;;;;2.83;1.40;;;29.00;57.60;;;;;;5027139;28;20214;-70
2022/06/24 10:33:31;;;;;;;2.13;1.63;;;28.90;57.50;;;;;;5014687;28;20241;-70
2022/06/24 10:36:02;;;;;;;3.08;1.50;;;28.90;57.90;;;;;;5015426;28;20207;-70
2022/06/24 10:38:38;;;;;;;3.63;1.40;;;28.90;57.70;;;;;;5019383;28;20206;-71
2022/06/24 10:41:07;;;;;;;2.13;1.38;;;29.10;57.90;;;;;;5022579;28;20202;-71
2022/06/24 10:43:42;;;;;;;1.48;1.38;;;29.20;57.40;;;;;;5034558;28;20198;-69
2022/06/24 10:46:21;;;;;;;1.17;1.13;;;29.40;57.00;;;;;;5020478;28;20210;-71
2022/06/24 10:48:59;;;;;;;1.98;1.33;;;29.40;56.70;;;;;;5019663;28;20270;-70
2022/06/24 10:51:31;;;;;;;2.00;1.10;;;29.50;56.70;;;;;;5017031;28;20207;-70
2022/06/24 10:54:14;;;;;;;2.63;1.35;;;29.50;56.30;;;;;;5015502;28;20215;-70
2022/06/24 10:56:44;;;;;;;2.63;1.73;;;29.60;55.90;;;;;;5020792;28;20202;-71
2022/06/24 10:59:12;;;;;;;4.70;1.70;;;29.60;55.90;;;;;;5025257;28;20204;-70
2022/06/24 11:01:42;;;;;;;1.90;1.38;;;29.60;55.60;;;;;;5019200;28;20218;-70
2022/06/24 11:04:13;;;;;;;3.85;1.83;;;29.60;55.60;;;;;;5016975;28;20214;-70
2022/06/24 11:07:09;;;;;;;1.67;1.58;;;29.60;55.60;;;;;;5024300;28;20233;-71
2022/06/24 11:09:36;;;;;;;6.47;1.77;;;29.50;55.60;;;;;;5019940;28;20573;-70
2022/06/24 11:12:04;;;;;;;1.92;1.40;;;29.40;55.70;;;;;;5015233;28;20215;-71
2022/06/24 11:14:31;;;;;;;3.30;1.52;;;29.50;56.00;;;;;;5018588;28;20218;-70
2022/06/24 11:16:58;;;;;;;4.20;1.33;;;29.70;56.30;;;;;;5023376;28;20235;-70
2022/06/24 11:19:25;;;;;;;3.08;1.38;;;29.90;55.90;;;;;;5025929;28;20211;-70
2022/06/24 11:21:53;;;;;;;2.08;1.65;;;29.90;55.40;;;;;;5022076;28;20244;-70
2022/06/24 11:24:21;;;;;;;2.45;1.55;;;29.80;55.30;;;;;;5017835;28;20215;-71
2022/06/24 11:27:05;;;;;;;3.45;1.17;;;29.80;55.30;;;;;;5013522;28;20203;-71
2022/06/24 11:29:53;;;;;;;2.65;1.40;;;29.80;55.40;;;;;;5027821;28;20285;-70
2022/06/24 11:32:21;;;;;;;4.15;1.40;;;29.90;55.40;;;;;;5020305;28;20295;-70
2022/06/24 11:34:49;;;;;;;1.38;1.27;;;29.90;55.40;;;;;;5028655;28;20236;-70
2022/06/24 11:37:23;;;;;;;4.47;1.40;;;29.90;55.30;;;;;;5014936;28;20214;-69
2022/06/24 11:39:54;;;;;;;5.25;1.25;;;30.00;55.40;;;;;;5013238;28;20210;-68
2022/06/24 11:42:21;;;;;;;1.60;1.30;;;30.10;55.20;;;;;;5017401;28;20589;-69
2022/06/24 11:44:51;;;;;;;2.33;1.67;;;30.20;55.30;;;;;;5019228;28;20689;-70
2022/06/24 11:47:30;;;;;;;6.00;1.50;;;30.40;55.30;;;;;;5024917;28;20221;-70
2022/06/24 11:49:57;;;;;;;2.00;1.40;;;30.50;54.60;;;;;;5018461;28;20199;-70
2022/06/24 11:52:25;;;;;;;1.40;1.30;;;30.50;53.90;;;;;;5018940;28;20206;-70
2022/06/24 11:54:52;;;;;;;2.90;1.33;;;30.40;53.70;;;;;;5025299;28;20303;-71
2022/06/24 11:57:21;;;;;;;1.85;1.58;;;30.40;54.10;;;;;;5026886;28;20302;-70
2022/06/24 11:59:48;;;;;;;5.30;1.40;;;30.40;53.70;;;;;;5022380;28;20210;-72
2022/06/24 12:02:16;;;;;;;2.00;1.40;;;30.20;53.60;;;;;;5023514;28;20230;-72
2022/06/24 12:04:47;;;;;;;5.97;1.48;;;30.20;54.00;;;;;;5021820;28;20209;-71
2022/06/24 12:07:15;;;;;;;3.90;1.45;;;30.20;53.90;;;;;;5018334;28;20217;-70
2022/06/24 12:09:43;;;;;;;6.78;1.52;;;30.20;53.60;;;;;;5029668;28;20298;-71
2022/06/24 12:12:12;;;;;;;2.33;1.23;;;30.30;53.90;;;;;;5022517;28;20574;-72
2022/06/24 12:14:39;;;;;;;4.07;1.55;;;30.50;53.90;;;;;;5016882;28;20231;-74
2022/06/24 12:17:07;;;;;;;5.35;1.30;;;30.60;53.70;;;;;;5028311;28;20266;-73
2022/06/24 12:19:37;;;;;;;3.33;1.30;;;30.80;53.60;;;;;;5031753;28;20225;-72
2022/06/24 12:22:06;;;;;;;2.28;1.40;;;30.80;52.80;;;;;;5021101;28;20211;-72
2022/06/24 12:24:34;;;;;;;1.50;1.23;;;30.70;52.40;;;;;;5026384;28;20217;-71
2022/06/24 12:27:04;;;;;;;3.10;1.27;;;30.70;52.50;;;;;;5017580;28;20226;-71
2022/06/24 12:29:32;;;;;;;1.52;1.30;;;30.70;52.40;;;;;;5030586;28;20235;-72
2022/06/24 12:32:00;;;;;;;4.43;1.48;;;30.60;52.10;;;;;;5033701;28;20630;-72
2022/06/24 12:34:27;;;;;;;2.08;1.33;;;30.60;52.50;;;;;;5018124;28;20238;-71
2022/06/24 12:37:00;;;;;;;1.40;1.30;;;30.60;52.80;;;;;;5020000;28;20215;-72
2022/06/24 12:39:29;;;;;;;1.63;1.05;;;30.60;52.80;;;;;;5022222;28;20211;-71
2022/06/24 12:41:57;;;;;;;1.67;1.40;;;30.70;52.90;;;;;;5021369;28;20211;-72
2022/06/24 12:44:29;;;;;;;1.83;1.58;;;30.60;52.20;;;;;;5028315;28;20213;-72
2022/06/24 12:52:37;;;;;;;1.40;1.30;;;30.50;52.60;;;;;;5020293;28;20210;-72
2022/06/24 12:55:06;;;;;;;2.67;1.33;;;30.40;52.90;;;;;;5022728;28;20647;-72
2022/06/24 12:57:33;;;;;;;1.25;1.20;;;30.40;53.00;;;;;;5021392;28;20207;-72
2022/06/24 13:00:03;;;;;;;1.33;1.20;;;30.40;52.60;;;;;;5020363;28;20297;-74
2022/06/24 13:02:30;;;;;;;2.22;1.77;;;30.30;52.40;;;;;;5017806;28;20211;-73
2022/06/24 13:04:57;;;;;;;2.17;1.38;;;30.30;52.80;;;;;;5030096;28;20570;-71
2022/06/24 13:07:24;;;;;;;1.38;1.27;;;30.20;52.60;;;;;;5016177;28;20588;-72
2022/06/24 13:09:51;;;;;;;2.47;1.50;;;30.20;52.80;;;;;;5015968;28;20207;-72